GRZ504 Details

Departure: Fairbanks International Airport (PAFA)
Arrival: Ted Stevens Anchorage International Airport (PANC)
Route: PUYVO2 PUYVO KROTO4


Current Weather Information
PAFA 181553Z 05004KT 10SM BKN100 BKN150 01/M04 A2936 RMK AO2 SLP949 T00061039 PNO
PANC 181553Z 07005KT 10SM FEW060 BKN100 BKN210 04/01 A2939 RMK AO2 SLP953 T00390006